sensor_id;sensor_type;location;lat;lon;timestamp;P1;P2;P0
38451;PMS5003;24231;52.514;13.438;2022-11-15T00:03:01;74;62;
38451;PMS5003;24231;52.514;13.438;2022-11-15T00:05:29;70;64;
38451;PMS5003;24231;52.514;13.438;2022-11-15T00:07:56;48;40;
38451;PMS5003;24231;52.514;13.438;2022-11-15T00:10:23;49;42;
38451;PMS5003;24231;52.514;13.438;2022-11-15T00:12:51;49;39;
38451;PMS5003;24231;52.514;13.438;2022-11-15T00:15:18;50;43;
38451;PMS5003;24231;52.514;13.438;2022-11-15T00:17:48;51;45;
38451;PMS5003;24231;52.514;13.438;2022-11-15T00:20:16;43;36;
38451;PMS5003;24231;52.514;13.438;2022-11-15T00:22:43;44;44;
38451;PMS5003;24231;52.514;13.438;2022-11-15T00:25:10;52;40;
38451;PMS5003;24231;52.514;13.438;2022-11-15T00:27:38;52;41;
38451;PMS5003;24231;52.514;13.438;2022-11-15T00:30:06;54;43;
38451;PMS5003;24231;52.514;13.438;2022-11-15T00:32:33;48;41;
38451;PMS5003;24231;52.514;13.438;2022-11-15T00:35:05;52;50;
38451;PMS5003;24231;52.514;13.438;2022-11-15T00:37:33;56;45;
38451;PMS5003;24231;52.514;13.438;2022-11-15T00:40:00;52;43;
38451;PMS5003;24231;52.514;13.438;2022-11-15T00:42:27;41;38;
38451;PMS5003;24231;52.514;13.438;2022-11-15T00:44:55;43;35;
38451;PMS5003;24231;52.514;13.438;2022-11-15T00:47:22;47;41;
38451;PMS5003;24231;52.514;13.438;2022-11-15T00:49:49;43;38;
38451;PMS5003;24231;52.514;13.438;2022-11-15T00:52:16;52;46;
38451;PMS5003;24231;52.514;13.438;2022-11-15T00:54:44;45;37;
38451;PMS5003;24231;52.514;13.438;2022-11-15T00:57:11;56;44;
38451;PMS5003;24231;52.514;13.438;2022-11-15T00:59:39;51;43;
38451;PMS5003;24231;52.514;13.438;2022-11-15T01:02:06;57;45;
38451;PMS5003;24231;52.514;13.438;2022-11-15T01:04:34;55;50;
38451;PMS5003;24231;52.514;13.438;2022-11-15T01:07:01;47;41;
38451;PMS5003;24231;52.514;13.438;2022-11-15T01:09:28;51;41;
38451;PMS5003;24231;52.514;13.438;2022-11-15T01:11:55;51;43;
38451;PMS5003;24231;52.514;13.438;2022-11-15T01:14:22;44;37;
38451;PMS5003;24231;52.514;13.438;2022-11-15T01:16:49;50;43;
38451;PMS5003;24231;52.514;13.438;2022-11-15T01:19:17;53;40;
38451;PMS5003;24231;52.514;13.438;2022-11-15T01:21:44;47;44;
38451;PMS5003;24231;52.514;13.438;2022-11-15T01:24:11;54;46;
38451;PMS5003;24231;52.514;13.438;2022-11-15T01:26:39;45;37;
38451;PMS5003;24231;52.514;13.438;2022-11-15T01:29:06;49;39;
38451;PMS5003;24231;52.514;13.438;2022-11-15T01:31:34;56;38;
38451;PMS5003;24231;52.514;13.438;2022-11-15T01:34:02;49;38;
38451;PMS5003;24231;52.514;13.438;2022-11-15T01:36:29;52;43;
38451;PMS5003;24231;52.514;13.438;2022-11-15T01:38:57;58;46;
38451;PMS5003;24231;52.514;13.438;2022-11-15T01:41:26;44;38;
38451;PMS5003;24231;52.514;13.438;2022-11-15T01:43:56;55;45;
38451;PMS5003;24231;52.514;13.438;2022-11-15T01:46:26;51;43;
38451;PMS5003;24231;52.514;13.438;2022-11-15T01:48:58;56;51;
38451;PMS5003;24231;52.514;13.438;2022-11-15T01:51:29;50;39;
38451;PMS5003;24231;52.514;13.438;2022-11-15T01:54:00;45;39;
38451;PMS5003;24231;52.514;13.438;2022-11-15T01:56:31;55;44;
38451;PMS5003;24231;52.514;13.438;2022-11-15T01:59:10;45;38;
38451;PMS5003;24231;52.514;13.438;2022-11-15T02:01:39;50;43;
38451;PMS5003;24231;52.514;13.438;2022-11-15T02:04:09;49;43;
38451;PMS5003;24231;52.514;13.438;2022-11-15T02:06:39;54;47;
38451;PMS5003;24231;52.514;13.438;2022-11-15T02:09:09;47;42;
38451;PMS5003;24231;52.514;13.438;2022-11-15T02:11:38;59;49;
38451;PMS5003;24231;52.514;13.438;2022-11-15T02:14:05;60;45;
38451;PMS5003;24231;52.514;13.438;2022-11-15T02:16:35;56;47;
38451;PMS5003;24231;52.514;13.438;2022-11-15T02:19:17;47;42;
38451;PMS5003;24231;52.514;13.438;2022-11-15T02:22:00;48;40;
38451;PMS5003;24231;52.514;13.438;2022-11-15T02:24:44;51;43;
38451;PMS5003;24231;52.514;13.438;2022-11-15T02:27:27;48;38;
38451;PMS5003;24231;52.514;13.438;2022-11-15T02:28:40;48;38;
38451;PMS5003;24231;52.514;13.438;2022-11-15T02:31:17;47;44;
38451;PMS5003;24231;52.514;13.438;2022-11-15T02:33:55;51;41;
38451;PMS5003;24231;52.514;13.438;2022-11-15T02:36:32;45;41;
38451;PMS5003;24231;52.514;13.438;2022-11-15T02:39:07;52;43;
38451;PMS5003;24231;52.514;13.438;2022-11-15T02:41:43;43;40;
38451;PMS5003;24231;52.514;13.438;2022-11-15T02:44:15;49;42;
38451;PMS5003;24231;52.514;13.438;2022-11-15T02:46:49;50;46;
38451;PMS5003;24231;52.514;13.438;2022-11-15T02:49:22;52;46;
38451;PMS5003;24231;52.514;13.438;2022-11-15T02:51:51;40;37;
38451;PMS5003;24231;52.514;13.438;2022-11-15T02:54:21;52;44;
38451;PMS5003;24231;52.514;13.438;2022-11-15T02:56:50;48;39;
38451;PMS5003;24231;52.514;13.438;2022-11-15T02:59:26;46;43;
38451;PMS5003;24231;52.514;13.438;2022-11-15T03:02:13;47;42;
38451;PMS5003;24231;52.514;13.438;2022-11-15T03:04:49;44;37;
38451;PMS5003;24231;52.514;13.438;2022-11-15T03:07:22;52;38;
38451;PMS5003;24231;52.514;13.438;2022-11-15T03:09:56;51;40;
38451;PMS5003;24231;52.514;13.438;2022-11-15T03:12:33;43;34;
38451;PMS5003;24231;52.514;13.438;2022-11-15T03:15:05;52;43;
38451;PMS5003;24231;52.514;13.438;2022-11-15T03:17:37;44;35;
38451;PMS5003;24231;52.514;13.438;2022-11-15T03:20:09;45;36;
38451;PMS5003;24231;52.514;13.438;2022-11-15T03:22:40;49;40;
38451;PMS5003;24231;52.514;13.438;2022-11-15T03:25:12;46;41;
38451;PMS5003;24231;52.514;13.438;2022-11-15T03:27:44;47;36;
38451;PMS5003;24231;52.514;13.438;2022-11-15T03:30:15;54;42;
38451;PMS5003;24231;52.514;13.438;2022-11-15T03:32:44;44;42;
38451;PMS5003;24231;52.514;13.438;2022-11-15T03:35:17;44;43;
38451;PMS5003;24231;52.514;13.438;2022-11-15T03:37:48;50;42;
38451;PMS5003;24231;52.514;13.438;2022-11-15T03:40:22;49;41;
38451;PMS5003;24231;52.514;13.438;2022-11-15T03:42:54;47;37;
38451;PMS5003;24231;52.514;13.438;2022-11-15T03:45:29;46;42;
38451;PMS5003;24231;52.514;13.438;2022-11-15T03:48:04;62;47;
38451;PMS5003;24231;52.514;13.438;2022-11-15T03:50:37;40;31;
38451;PMS5003;24231;52.514;13.438;2022-11-15T03:53:05;44;39;
38451;PMS5003;24231;52.514;13.438;2022-11-15T03:55:32;42;38;
38451;PMS5003;24231;52.514;13.438;2022-11-15T03:58:00;46;40;
38451;PMS5003;24231;52.514;13.438;2022-11-15T04:00:27;49;40;
38451;PMS5003;24231;52.514;13.438;2022-11-15T04:02:55;44;37;
38451;PMS5003;24231;52.514;13.438;2022-11-15T04:05:23;43;39;
38451;PMS5003;24231;52.514;13.438;2022-11-15T04:07:50;44;39;
38451;PMS5003;24231;52.514;13.438;2022-11-15T04:10:17;53;47;
38451;PMS5003;24231;52.514;13.438;2022-11-15T04:12:45;49;43;
38451;PMS5003;24231;52.514;13.438;2022-11-15T04:15:14;55;42;
38451;PMS5003;24231;52.514;13.438;2022-11-15T04:17:43;46;36;
38451;PMS5003;24231;52.514;13.438;2022-11-15T04:20:12;46;38;
38451;PMS5003;24231;52.514;13.438;2022-11-15T04:22:42;49;45;
38451;PMS5003;24231;52.514;13.438;2022-11-15T04:25:09;61;54;
38451;PMS5003;24231;52.514;13.438;2022-11-15T04:27:36;57;47;
38451;PMS5003;24231;52.514;13.438;2022-11-15T04:30:04;46;36;
38451;PMS5003;24231;52.514;13.438;2022-11-15T04:32:32;50;39;
38451;PMS5003;24231;52.514;13.438;2022-11-15T04:35:00;55;41;
38451;PMS5003;24231;52.514;13.438;2022-11-15T04:37:27;57;46;
38451;PMS5003;24231;52.514;13.438;2022-11-15T04:39:54;46;43;
38451;PMS5003;24231;52.514;13.438;2022-11-15T04:42:22;46;43;
38451;PMS5003;24231;52.514;13.438;2022-11-15T04:44:49;50;42;
38451;PMS5003;24231;52.514;13.438;2022-11-15T04:47:15;49;44;
38451;PMS5003;24231;52.514;13.438;2022-11-15T04:49:43;61;45;
38451;PMS5003;24231;52.514;13.438;2022-11-15T04:52:10;49;41;
38451;PMS5003;24231;52.514;13.438;2022-11-15T04:54:37;48;41;
38451;PMS5003;24231;52.514;13.438;2022-11-15T04:57:04;49;39;
38451;PMS5003;24231;52.514;13.438;2022-11-15T04:59:31;52;41;
38451;PMS5003;24231;52.514;13.438;2022-11-15T05:01:58;51;45;
38451;PMS5003;24231;52.514;13.438;2022-11-15T05:04:25;52;40;
38451;PMS5003;24231;52.514;13.438;2022-11-15T05:06:53;43;36;
38451;PMS5003;24231;52.514;13.438;2022-11-15T05:09:21;51;41;
38451;PMS5003;24231;52.514;13.438;2022-11-15T05:11:48;50;45;
38451;PMS5003;24231;52.514;13.438;2022-11-15T05:14:15;52;46;
38451;PMS5003;24231;52.514;13.438;2022-11-15T05:16:42;45;37;
38451;PMS5003;24231;52.514;13.438;2022-11-15T05:19:10;40;34;
38451;PMS5003;24231;52.514;13.438;2022-11-15T05:21:37;58;44;
38451;PMS5003;24231;52.514;13.438;2022-11-15T05:24:05;51;44;
38451;PMS5003;24231;52.514;13.438;2022-11-15T05:26:33;56;44;
38451;PMS5003;24231;52.514;13.438;2022-11-15T05:29:00;42;34;
38451;PMS5003;24231;52.514;13.438;2022-11-15T05:31:28;40;35;
38451;PMS5003;24231;52.514;13.438;2022-11-15T05:34:04;35;32;
38451;PMS5003;24231;52.514;13.438;2022-11-15T05:36:34;51;43;
38451;PMS5003;24231;52.514;13.438;2022-11-15T05:39:05;52;43;
38451;PMS5003;24231;52.514;13.438;2022-11-15T05:41:33;47;40;
38451;PMS5003;24231;52.514;13.438;2022-11-15T05:44:05;50;46;
38451;PMS5003;24231;52.514;13.438;2022-11-15T05:46:34;49;43;
38451;PMS5003;24231;52.514;13.438;2022-11-15T05:49:03;51;43;
38451;PMS5003;24231;52.514;13.438;2022-11-15T05:51:34;45;38;
38451;PMS5003;24231;52.514;13.438;2022-11-15T05:54:01;48;40;
38451;PMS5003;24231;52.514;13.438;2022-11-15T05:56:29;47;40;
38451;PMS5003;24231;52.514;13.438;2022-11-15T05:58:57;47;40;
38451;PMS5003;24231;52.514;13.438;2022-11-15T06:01:25;52;45;
38451;PMS5003;24231;52.514;13.438;2022-11-15T06:03:53;45;41;
38451;PMS5003;24231;52.514;13.438;2022-11-15T06:06:20;47;36;
38451;PMS5003;24231;52.514;13.438;2022-11-15T06:08:48;53;40;
38451;PMS5003;24231;52.514;13.438;2022-11-15T06:11:15;46;38;
38451;PMS5003;24231;52.514;13.438;2022-11-15T06:13:42;45;40;
38451;PMS5003;24231;52.514;13.438;2022-11-15T06:16:09;48;41;
38451;PMS5003;24231;52.514;13.438;2022-11-15T06:18:38;53;43;
38451;PMS5003;24231;52.514;13.438;2022-11-15T06:21:05;47;35;
38451;PMS5003;24231;52.514;13.438;2022-11-15T06:23:34;40;36;
38451;PMS5003;24231;52.514;13.438;2022-11-15T06:26:02;51;40;
38451;PMS5003;24231;52.514;13.438;2022-11-15T06:28:30;49;39;
38451;PMS5003;24231;52.514;13.438;2022-11-15T06:31:01;48;41;
38451;PMS5003;24231;52.514;13.438;2022-11-15T06:33:29;51;44;
38451;PMS5003;24231;52.514;13.438;2022-11-15T06:35:59;41;35;
38451;PMS5003;24231;52.514;13.438;2022-11-15T06:38:27;46;42;
38451;PMS5003;24231;52.514;13.438;2022-11-15T06:40:55;46;45;
38451;PMS5003;24231;52.514;13.438;2022-11-15T06:43:27;46;39;
38451;PMS5003;24231;52.514;13.438;2022-11-15T06:45:54;50;42;
38451;PMS5003;24231;52.514;13.438;2022-11-15T06:48:21;50;44;
38451;PMS5003;24231;52.514;13.438;2022-11-15T06:50:50;48;42;
38451;PMS5003;24231;52.514;13.438;2022-11-15T06:53:17;39;36;
38451;PMS5003;24231;52.514;13.438;2022-11-15T06:55:45;41;35;
38451;PMS5003;24231;52.514;13.438;2022-11-15T06:58:11;48;42;
38451;PMS5003;24231;52.514;13.438;2022-11-15T07:00:39;45;38;
38451;PMS5003;24231;52.514;13.438;2022-11-15T07:03:07;39;36;
38451;PMS5003;24231;52.514;13.438;2022-11-15T07:05:35;47;42;
38451;PMS5003;24231;52.514;13.438;2022-11-15T07:08:02;48;43;
38451;PMS5003;24231;52.514;13.438;2022-11-15T07:10:31;47;43;
38451;PMS5003;24231;52.514;13.438;2022-11-15T07:12:58;46;40;
38451;PMS5003;24231;52.514;13.438;2022-11-15T07:15:25;40;37;
38451;PMS5003;24231;52.514;13.438;2022-11-15T07:17:52;45;40;
38451;PMS5003;24231;52.514;13.438;2022-11-15T07:20:19;51;41;
38451;PMS5003;24231;52.514;13.438;2022-11-15T07:22:46;37;32;
38451;PMS5003;24231;52.514;13.438;2022-11-15T07:25:13;36;31;
38451;PMS5003;24231;52.514;13.438;2022-11-15T07:27:41;37;31;
38451;PMS5003;24231;52.514;13.438;2022-11-15T07:30:08;40;37;
38451;PMS5003;24231;52.514;13.438;2022-11-15T07:32:36;43;40;
38451;PMS5003;24231;52.514;13.438;2022-11-15T07:35:04;40;33;
38451;PMS5003;24231;52.514;13.438;2022-11-15T07:37:31;40;33;
38451;PMS5003;24231;52.514;13.438;2022-11-15T07:39:59;35;33;
38451;PMS5003;24231;52.514;13.438;2022-11-15T07:42:26;31;27;
38451;PMS5003;24231;52.514;13.438;2022-11-15T07:44:53;40;35;
38451;PMS5003;24231;52.514;13.438;2022-11-15T07:47:31;34;31;
38451;PMS5003;24231;52.514;13.438;2022-11-15T07:49:58;38;30;
38451;PMS5003;24231;52.514;13.438;2022-11-15T07:52:25;36;33;
38451;PMS5003;24231;52.514;13.438;2022-11-15T07:54:52;39;33;
38451;PMS5003;24231;52.514;13.438;2022-11-15T07:57:19;33;30;
38451;PMS5003;24231;52.514;13.438;2022-11-15T07:59:46;31;30;
38451;PMS5003;24231;52.514;13.438;2022-11-15T08:02:13;37;33;
38451;PMS5003;24231;52.514;13.438;2022-11-15T08:04:41;40;34;
38451;PMS5003;24231;52.514;13.438;2022-11-15T08:07:08;35;31;
38451;PMS5003;24231;52.514;13.438;2022-11-15T08:09:35;38;33;
38451;PMS5003;24231;52.514;13.438;2022-11-15T08:12:02;48;37;
38451;PMS5003;24231;52.514;13.438;2022-11-15T08:14:30;37;35;
38451;PMS5003;24231;52.514;13.438;2022-11-15T08:16:57;42;33;
38451;PMS5003;24231;52.514;13.438;2022-11-15T08:19:25;30;28;
38451;PMS5003;24231;52.514;13.438;2022-11-15T08:21:53;38;30;
38451;PMS5003;24231;52.514;13.438;2022-11-15T08:24:20;36;30;
38451;PMS5003;24231;52.514;13.438;2022-11-15T08:26:48;34;30;
38451;PMS5003;24231;52.514;13.438;2022-11-15T08:29:15;34;28;
38451;PMS5003;24231;52.514;13.438;2022-11-15T08:31:42;35;31;
38451;PMS5003;24231;52.514;13.438;2022-11-15T08:34:09;40;33;
38451;PMS5003;24231;52.514;13.438;2022-11-15T08:36:36;45;38;
38451;PMS5003;24231;52.514;13.438;2022-11-15T08:39:04;30;30;
38451;PMS5003;24231;52.514;13.438;2022-11-15T08:41:32;35;27;
38451;PMS5003;24231;52.514;13.438;2022-11-15T08:44:04;30;25;
38451;PMS5003;24231;52.514;13.438;2022-11-15T08:46:31;35;31;
38451;PMS5003;24231;52.514;13.438;2022-11-15T08:48:59;34;30;
38451;PMS5003;24231;52.514;13.438;2022-11-15T08:51:26;34;30;
38451;PMS5003;24231;52.514;13.438;2022-11-15T08:53:53;38;31;
38451;PMS5003;24231;52.514;13.438;2022-11-15T08:56:22;33;29;
38451;PMS5003;24231;52.514;13.438;2022-11-15T08:58:49;40;31;
38451;PMS5003;24231;52.514;13.438;2022-11-15T09:01:17;38;33;
38451;PMS5003;24231;52.514;13.438;2022-11-15T09:03:47;36;32;
38451;PMS5003;24231;52.514;13.438;2022-11-15T09:06:15;41;32;
38451;PMS5003;24231;52.514;13.438;2022-11-15T09:08:42;37;36;
38451;PMS5003;24231;52.514;13.438;2022-11-15T09:11:09;37;31;
38451;PMS5003;24231;52.514;13.438;2022-11-15T09:13:36;37;32;
38451;PMS5003;24231;52.514;13.438;2022-11-15T09:16:04;42;31;
38451;PMS5003;24231;52.514;13.438;2022-11-15T09:18:32;36;34;
38451;PMS5003;24231;52.514;13.438;2022-11-15T09:20:59;30;24;
38451;PMS5003;24231;52.514;13.438;2022-11-15T09:23:27;37;31;
38451;PMS5003;24231;52.514;13.438;2022-11-15T09:25:58;38;28;
38451;PMS5003;24231;52.514;13.438;2022-11-15T09:28:26;31;28;
38451;PMS5003;24231;52.514;13.438;2022-11-15T09:30:55;35;31;
38451;PMS5003;24231;52.514;13.438;2022-11-15T09:33:23;30;28;
38451;PMS5003;24231;52.514;13.438;2022-11-15T09:35:51;35;26;
38451;PMS5003;24231;52.514;13.438;2022-11-15T09:38:18;34;25;
38451;PMS5003;24231;52.514;13.438;2022-11-15T09:40:45;37;32;
38451;PMS5003;24231;52.514;13.438;2022-11-15T09:43:28;32;29;
38451;PMS5003;24231;52.514;13.438;2022-11-15T09:46:02;28;26;
38451;PMS5003;24231;52.514;13.438;2022-11-15T09:48:46;36;31;
38451;PMS5003;24231;52.514;13.438;2022-11-15T09:51:19;32;24;
38451;PMS5003;24231;52.514;13.438;2022-11-15T09:53:55;33;26;
38451;PMS5003;24231;52.514;13.438;2022-11-15T09:56:28;41;33;
38451;PMS5003;24231;52.514;13.438;2022-11-15T09:59:01;34;31;
38451;PMS5003;24231;52.514;13.438;2022-11-15T10:01:44;38;34;
38451;PMS5003;24231;52.514;13.438;2022-11-15T10:04:21;35;28;
38451;PMS5003;24231;52.514;13.438;2022-11-15T10:06:51;26;24;
38451;PMS5003;24231;52.514;13.438;2022-11-15T10:09:25;35;25;
38451;PMS5003;24231;52.514;13.438;2022-11-15T10:11:55;32;28;
38451;PMS5003;24231;52.514;13.438;2022-11-15T10:14:23;30;25;
38451;PMS5003;24231;52.514;13.438;2022-11-15T10:17:00;23;20;
38451;PMS5003;24231;52.514;13.438;2022-11-15T10:19:39;23;22;
38451;PMS5003;24231;52.514;13.438;2022-11-15T10:22:26;29;23;
38451;PMS5003;24231;52.514;13.438;2022-11-15T10:25:04;25;23;
38451;PMS5003;24231;52.514;13.438;2022-11-15T10:27:41;23;21;
38451;PMS5003;24231;52.514;13.438;2022-11-15T10:30:11;23;21;
38451;PMS5003;24231;52.514;13.438;2022-11-15T10:32:40;24;20;
38451;PMS5003;24231;52.514;13.438;2022-11-15T10:35:27;30;26;
38451;PMS5003;24231;52.514;13.438;2022-11-15T10:38:04;21;18;
38451;PMS5003;24231;52.514;13.438;2022-11-15T10:40:33;26;22;
38451;PMS5003;24231;52.514;13.438;2022-11-15T10:43:06;22;18;
38451;PMS5003;24231;52.514;13.438;2022-11-15T10:45:40;23;20;
38451;PMS5003;24231;52.514;13.438;2022-11-15T10:48:24;19;17;
38451;PMS5003;24231;52.514;13.438;2022-11-15T10:50:52;29;23;
38451;PMS5003;24231;52.514;13.438;2022-11-15T10:53:22;23;21;
38451;PMS5003;24231;52.514;13.438;2022-11-15T10:55:54;22;17;
38451;PMS5003;24231;52.514;13.438;2022-11-15T10:58:29;23;20;
38451;PMS5003;24231;52.514;13.438;2022-11-15T11:01:08;28;22;
38451;PMS5003;24231;52.514;13.438;2022-11-15T11:03:39;23;22;
38451;PMS5003;24231;52.514;13.438;2022-11-15T11:06:09;18;16;
38451;PMS5003;24231;52.514;13.438;2022-11-15T11:08:38;24;19;
38451;PMS5003;24231;52.514;13.438;2022-11-15T11:11:06;23;20;
38451;PMS5003;24231;52.514;13.438;2022-11-15T11:13:34;23;18;
38451;PMS5003;24231;52.514;13.438;2022-11-15T11:16:10;26;22;
38451;PMS5003;24231;52.514;13.438;2022-11-15T11:18:49;27;25;
38451;PMS5003;24231;52.514;13.438;2022-11-15T11:21:25;26;22;
38451;PMS5003;24231;52.514;13.438;2022-11-15T11:24:04;23;20;
38451;PMS5003;24231;52.514;13.438;2022-11-15T11:26:40;26;25;
38451;PMS5003;24231;52.514;13.438;2022-11-15T11:29:18;23;22;
38451;PMS5003;24231;52.514;13.438;2022-11-15T11:31:57;19;19;
38451;PMS5003;24231;52.514;13.438;2022-11-15T11:34:33;27;23;
38451;PMS5003;24231;52.514;13.438;2022-11-15T11:37:14;26;24;
38451;PMS5003;24231;52.514;13.438;2022-11-15T11:39:56;54;49;
38451;PMS5003;24231;52.514;13.438;2022-11-15T11:42:36;153;122;
38451;PMS5003;24231;52.514;13.438;2022-11-15T11:45:14;29;29;
38451;PMS5003;24231;52.514;13.438;2022-11-15T11:47:46;22;21;
38451;PMS5003;24231;52.514;13.438;2022-11-15T11:50:18;28;21;
38451;PMS5003;24231;52.514;13.438;2022-11-15T11:52:52;26;24;
38451;PMS5003;24231;52.514;13.438;2022-11-15T11:55:25;27;21;
38451;PMS5003;24231;52.514;13.438;2022-11-15T11:58:01;25;22;
38451;PMS5003;24231;52.514;13.438;2022-11-15T12:00:38;21;17;
38451;PMS5003;24231;52.514;13.438;2022-11-15T12:03:09;26;21;
38451;PMS5003;24231;52.514;13.438;2022-11-15T12:05:41;22;20;
38451;PMS5003;24231;52.514;13.438;2022-11-15T12:08:20;28;22;
38451;PMS5003;24231;52.514;13.438;2022-11-15T12:10:57;20;19;
38451;PMS5003;24231;52.514;13.438;2022-11-15T12:13:31;21;19;
38451;PMS5003;24231;52.514;13.438;2022-11-15T12:16:01;26;21;
38451;PMS5003;24231;52.514;13.438;2022-11-15T12:18:33;27;22;
38451;PMS5003;24231;52.514;13.438;2022-11-15T12:21:02;31;25;
38451;PMS5003;24231;52.514;13.438;2022-11-15T12:23:37;24;24;
38451;PMS5003;24231;52.514;13.438;2022-11-15T12:26:10;23;21;
38451;PMS5003;24231;52.514;13.438;2022-11-15T12:28:45;30;26;
38451;PMS5003;24231;52.514;13.438;2022-11-15T12:31:20;23;22;
38451;PMS5003;24231;52.514;13.438;2022-11-15T12:33:50;43;34;
38451;PMS5003;24231;52.514;13.438;2022-11-15T12:36:34;25;22;
38451;PMS5003;24231;52.514;13.438;2022-11-15T12:39:05;33;30;
38451;PMS5003;24231;52.514;13.438;2022-11-15T12:41:34;25;24;
38451;PMS5003;24231;52.514;13.438;2022-11-15T12:44:04;23;22;
38451;PMS5003;24231;52.514;13.438;2022-11-15T12:47:26;23;21;
38451;PMS5003;24231;52.514;13.438;2022-11-15T12:49:54;27;23;
38451;PMS5003;24231;52.514;13.438;2022-11-15T12:52:22;22;20;
38451;PMS5003;24231;52.514;13.438;2022-11-15T12:54:51;22;21;
38451;PMS5003;24231;52.514;13.438;2022-11-15T12:57:28;25;19;
38451;PMS5003;24231;52.514;13.438;2022-11-15T12:59:59;24;21;
38451;PMS5003;24231;52.514;13.438;2022-11-15T13:02:28;20;19;
38451;PMS5003;24231;52.514;13.438;2022-11-15T13:05:25;19;18;
38451;PMS5003;24231;52.514;13.438;2022-11-15T13:08:39;22;20;
38451;PMS5003;24231;52.514;13.438;2022-11-15T13:11:51;24;21;
38451;PMS5003;24231;52.514;13.438;2022-11-15T13:14:52;24;22;
38451;PMS5003;24231;52.514;13.438;2022-11-15T13:17:25;19;19;
38451;PMS5003;24231;52.514;13.438;2022-11-15T13:19:59;26;22;
38451;PMS5003;24231;52.514;13.438;2022-11-15T13:22:38;28;23;
38451;PMS5003;24231;52.514;13.438;2022-11-15T13:25:14;22;20;
38451;PMS5003;24231;52.514;13.438;2022-11-15T13:27:42;21;19;
38451;PMS5003;24231;52.514;13.438;2022-11-15T13:30:13;21;20;
38451;PMS5003;24231;52.514;13.438;2022-11-15T13:32:46;19;17;
38451;PMS5003;24231;52.514;13.438;2022-11-15T13:35:19;22;18;
38451;PMS5003;24231;52.514;13.438;2022-11-15T13:37:53;25;24;
38451;PMS5003;24231;52.514;13.438;2022-11-15T13:40:24;19;15;
38451;PMS5003;24231;52.514;13.438;2022-11-15T13:42:52;19;19;
38451;PMS5003;24231;52.514;13.438;2022-11-15T13:45:20;15;14;
38451;PMS5003;24231;52.514;13.438;2022-11-15T13:47:52;25;23;
38451;PMS5003;24231;52.514;13.438;2022-11-15T13:50:21;20;16;
38451;PMS5003;24231;52.514;13.438;2022-11-15T13:52:51;24;22;
38451;PMS5003;24231;52.514;13.438;2022-11-15T13:55:20;20;17;
38451;PMS5003;24231;52.514;13.438;2022-11-15T13:57:51;17;15;
38451;PMS5003;24231;52.514;13.438;2022-11-15T14:00:27;27;23;
38451;PMS5003;24231;52.514;13.438;2022-11-15T14:03:05;26;22;
38451;PMS5003;24231;52.514;13.438;2022-11-15T14:05:34;23;18;
38451;PMS5003;24231;52.514;13.438;2022-11-15T14:08:03;21;18;
38451;PMS5003;24231;52.514;13.438;2022-11-15T14:10:40;22;18;
38451;PMS5003;24231;52.514;13.438;2022-11-15T14:13:10;26;23;
38451;PMS5003;24231;52.514;13.438;2022-11-15T14:15:54;18;18;
38451;PMS5003;24231;52.514;13.438;2022-11-15T14:18:39;20;17;
38451;PMS5003;24231;52.514;13.438;2022-11-15T14:21:08;28;22;
38451;PMS5003;24231;52.514;13.438;2022-11-15T14:23:36;24;20;
38451;PMS5003;24231;52.514;13.438;2022-11-15T14:26:03;29;26;
38451;PMS5003;24231;52.514;13.438;2022-11-15T14:28:31;22;19;
38451;PMS5003;24231;52.514;13.438;2022-11-15T14:31:00;22;20;
38451;PMS5003;24231;52.514;13.438;2022-11-15T14:33:28;20;17;
38451;PMS5003;24231;52.514;13.438;2022-11-15T14:35:59;28;22;
38451;PMS5003;24231;52.514;13.438;2022-11-15T14:38:30;23;19;
38451;PMS5003;24231;52.514;13.438;2022-11-15T14:40:58;25;22;
38451;PMS5003;24231;52.514;13.438;2022-11-15T14:43:25;22;20;
38451;PMS5003;24231;52.514;13.438;2022-11-15T14:45:52;26;21;
38451;PMS5003;24231;52.514;13.438;2022-11-15T14:48:20;22;20;
38451;PMS5003;24231;52.514;13.438;2022-11-15T14:50:47;25;24;
38451;PMS5003;24231;52.514;13.438;2022-11-15T14:53:15;22;21;
38451;PMS5003;24231;52.514;13.438;2022-11-15T14:55:43;23;19;
38451;PMS5003;24231;52.514;13.438;2022-11-15T14:58:10;30;21;
38451;PMS5003;24231;52.514;13.438;2022-11-15T15:00:38;34;24;
38451;PMS5003;24231;52.514;13.438;2022-11-15T15:03:06;24;22;
38451;PMS5003;24231;52.514;13.438;2022-11-15T15:05:35;27;25;
38451;PMS5003;24231;52.514;13.438;2022-11-15T15:08:03;26;21;
38451;PMS5003;24231;52.514;13.438;2022-11-15T15:10:31;25;18;
38451;PMS5003;24231;52.514;13.438;2022-11-15T15:13:00;26;23;
38451;PMS5003;24231;52.514;13.438;2022-11-15T15:15:31;26;24;
38451;PMS5003;24231;52.514;13.438;2022-11-15T15:18:00;28;24;
38451;PMS5003;24231;52.514;13.438;2022-11-15T15:20:28;23;22;
38451;PMS5003;24231;52.514;13.438;2022-11-15T15:22:56;26;26;
38451;PMS5003;24231;52.514;13.438;2022-11-15T15:25:24;32;27;
38451;PMS5003;24231;52.514;13.438;2022-11-15T15:27:54;26;25;
38451;PMS5003;24231;52.514;13.438;2022-11-15T15:30:23;30;25;
38451;PMS5003;24231;52.514;13.438;2022-11-15T15:32:51;29;23;
38451;PMS5003;24231;52.514;13.438;2022-11-15T15:35:19;24;22;
38451;PMS5003;24231;52.514;13.438;2022-11-15T15:37:47;30;25;
38451;PMS5003;24231;52.514;13.438;2022-11-15T15:40:15;31;24;
38451;PMS5003;24231;52.514;13.438;2022-11-15T15:42:44;31;28;
38451;PMS5003;24231;52.514;13.438;2022-11-15T15:45:12;28;25;
38451;PMS5003;24231;52.514;13.438;2022-11-15T15:47:40;35;28;
38451;PMS5003;24231;52.514;13.438;2022-11-15T15:50:17;22;22;
38451;PMS5003;24231;52.514;13.438;2022-11-15T15:52:48;21;20;
38451;PMS5003;24231;52.514;13.438;2022-11-15T15:55:15;32;28;
38451;PMS5003;24231;52.514;13.438;2022-11-15T15:57:42;28;25;
38451;PMS5003;24231;52.514;13.438;2022-11-15T16:00:10;29;28;
38451;PMS5003;24231;52.514;13.438;2022-11-15T16:02:39;34;29;
38451;PMS5003;24231;52.514;13.438;2022-11-15T16:05:06;32;28;
38451;PMS5003;24231;52.514;13.438;2022-11-15T16:07:35;28;26;
38451;PMS5003;24231;52.514;13.438;2022-11-15T16:10:02;22;20;
38451;PMS5003;24231;52.514;13.438;2022-11-15T16:12:40;34;25;
38451;PMS5003;24231;52.514;13.438;2022-11-15T16:15:08;36;27;
38451;PMS5003;24231;52.514;13.438;2022-11-15T16:17:37;32;25;
38451;PMS5003;24231;52.514;13.438;2022-11-15T16:20:06;34;30;
38451;PMS5003;24231;52.514;13.438;2022-11-15T16:22:41;29;25;
38451;PMS5003;24231;52.514;13.438;2022-11-15T16:25:09;28;22;